sensor_id;sensor_type;location;lat;lon;timestamp;P1;durP1;ratioP1;P2;durP2;ratioP2
30301;SDS011;17111;52.130;5.028;2022-10-16T08:50:27;25.65;;;8.30;;
30301;SDS011;17111;52.130;5.028;2022-10-16T08:52:55;25.23;;;10.85;;
30301;SDS011;17111;52.130;5.028;2022-10-16T08:55:28;22.60;;;9.80;;
30301;SDS011;17111;52.130;5.028;2022-10-16T08:57:58;24.10;;;9.38;;
30301;SDS011;17111;52.130;5.028;2022-10-16T09:00:26;22.13;;;9.20;;
30301;SDS011;17111;52.130;5.028;2022-10-16T09:11:45;32.10;;;9.32;;
30301;SDS011;17111;52.130;5.028;2022-10-16T09:14:43;25.17;;;11.20;;
30301;SDS011;17111;52.130;5.028;2022-10-16T09:25:31;23.90;;;9.50;;
30301;SDS011;17111;52.130;5.028;2022-10-16T09:27:58;24.30;;;9.82;;
30301;SDS011;17111;52.130;5.028;2022-10-16T09:30:26;27.58;;;11.18;;
30301;SDS011;17111;52.130;5.028;2022-10-16T09:32:55;21.05;;;9.45;;
30301;SDS011;17111;52.130;5.028;2022-10-16T09:36:08;30.80;;;9.02;;
30301;SDS011;17111;52.130;5.028;2022-10-16T09:38:26;20.08;;;10.50;;
30301;SDS011;17111;52.130;5.028;2022-10-16T09:40:55;19.77;;;9.32;;
30301;SDS011;17111;52.130;5.028;2022-10-16T09:43:36;20.25;;;9.43;;
30301;SDS011;17111;52.130;5.028;2022-10-16T09:46:07;22.85;;;9.73;;
30301;SDS011;17111;52.130;5.028;2022-10-16T09:48:56;18.77;;;9.25;;
30301;SDS011;17111;52.130;5.028;2022-10-16T09:51:31;17.90;;;9.00;;
30301;SDS011;17111;52.130;5.028;2022-10-16T09:56:35;20.63;;;9.07;;
30301;SDS011;17111;52.130;5.028;2022-10-16T09:59:12;17.40;;;8.75;;
30301;SDS011;17111;52.130;5.028;2022-10-16T10:01:41;17.23;;;9.52;;
30301;SDS011;17111;52.130;5.028;2022-10-16T10:04:11;22.52;;;9.20;;
30301;SDS011;17111;52.130;5.028;2022-10-16T10:07:14;24.20;;;9.18;;
30301;SDS011;17111;52.130;5.028;2022-10-16T10:09:37;14.68;;;8.73;;
30301;SDS011;17111;52.130;5.028;2022-10-16T10:12:05;14.60;;;8.10;;
30301;SDS011;17111;52.130;5.028;2022-10-16T10:14:47;14.13;;;7.15;;
30301;SDS011;17111;52.130;5.028;2022-10-16T10:17:20;16.42;;;8.23;;
30301;SDS011;17111;52.130;5.028;2022-10-16T10:19:53;16.38;;;8.02;;
30301;SDS011;17111;52.130;5.028;2022-10-16T10:33:44;13.85;;;6.65;;
30301;SDS011;17111;52.130;5.028;2022-10-16T10:39:06;19.75;;;7.45;;
30301;SDS011;17111;52.130;5.028;2022-10-16T10:47:55;13.85;;;6.32;;
30301;SDS011;17111;52.130;5.028;2022-10-16T10:59:22;12.15;;;5.90;;
30301;SDS011;17111;52.130;5.028;2022-10-16T11:02:13;11.32;;;6.22;;
30301;SDS011;17111;52.130;5.028;2022-10-16T11:07:34;15.38;;;7.85;;
30301;SDS011;17111;52.130;5.028;2022-10-16T11:10:11;14.60;;;8.32;;
30301;SDS011;17111;52.130;5.028;2022-10-16T11:12:46;14.48;;;7.93;;
30301;SDS011;17111;52.130;5.028;2022-10-16T11:15:19;17.05;;;8.13;;
30301;SDS011;17111;52.130;5.028;2022-10-16T11:20:42;14.40;;;7.30;;
30301;SDS011;17111;52.130;5.028;2022-10-16T11:23:25;15.88;;;8.02;;
30301;SDS011;17111;52.130;5.028;2022-10-16T11:25:56;15.55;;;7.40;;
30301;SDS011;17111;52.130;5.028;2022-10-16T11:28:33;16.40;;;8.50;;
30301;SDS011;17111;52.130;5.028;2022-10-16T11:36:49;12.15;;;7.28;;
30301;SDS011;17111;52.130;5.028;2022-10-16T11:42:08;13.50;;;7.05;;
30301;SDS011;17111;52.130;5.028;2022-10-16T11:50:36;12.55;;;7.30;;
30301;SDS011;17111;52.130;5.028;2022-10-16T11:53:13;13.50;;;6.70;;
30301;SDS011;17111;52.130;5.028;2022-10-16T11:55:48;16.83;;;6.90;;
30301;SDS011;17111;52.130;5.028;2022-10-16T11:58:29;15.10;;;7.38;;
30301;SDS011;17111;52.130;5.028;2022-10-16T12:06:27;11.70;;;5.75;;
30301;SDS011;17111;52.130;5.028;2022-10-16T12:09:04;11.85;;;5.75;;
30301;SDS011;17111;52.130;5.028;2022-10-16T12:11:35;13.07;;;6.35;;
30301;SDS011;17111;52.130;5.028;2022-10-16T12:14:07;11.15;;;6.07;;
30301;SDS011;17111;52.130;5.028;2022-10-16T12:16:56;11.65;;;5.57;;
30301;SDS011;17111;52.130;5.028;2022-10-16T12:19:24;12.85;;;5.72;;
30301;SDS011;17111;52.130;5.028;2022-10-16T12:21:54;10.38;;;5.68;;
30301;SDS011;17111;52.130;5.028;2022-10-16T12:26:52;16.48;;;5.85;;
30301;SDS011;17111;52.130;5.028;2022-10-16T12:32:27;12.02;;;5.65;;
30301;SDS011;17111;52.130;5.028;2022-10-16T12:35:32;9.60;;;6.10;;
30301;SDS011;17111;52.130;5.028;2022-10-16T12:38:06;14.35;;;6.05;;
30301;SDS011;17111;52.130;5.028;2022-10-16T12:40:35;10.88;;;5.68;;
30301;SDS011;17111;52.130;5.028;2022-10-16T12:46:02;11.10;;;6.15;;
30301;SDS011;17111;52.130;5.028;2022-10-16T12:48:31;11.27;;;6.68;;
30301;SDS011;17111;52.130;5.028;2022-10-16T12:57:13;12.90;;;6.90;;
30301;SDS011;17111;52.130;5.028;2022-10-16T13:14:00;11.30;;;6.45;;
30301;SDS011;17111;52.130;5.028;2022-10-16T13:21:50;13.35;;;6.22;;
30301;SDS011;17111;52.130;5.028;2022-10-16T13:27:35;14.50;;;7.82;;
30301;SDS011;17111;52.130;5.028;2022-10-16T13:30:26;19.50;;;10.65;;
30301;SDS011;17111;52.130;5.028;2022-10-16T13:35:27;16.65;;;9.70;;
30301;SDS011;17111;52.130;5.028;2022-10-16T13:38:03;22.00;;;10.90;;
30301;SDS011;17111;52.130;5.028;2022-10-16T13:40:49;16.77;;;9.95;;
30301;SDS011;17111;52.130;5.028;2022-10-16T13:46:03;21.13;;;11.77;;
30301;SDS011;17111;52.130;5.028;2022-10-16T13:48:32;21.40;;;11.90;;
30301;SDS011;17111;52.130;5.028;2022-10-16T13:51:00;19.08;;;11.32;;
30301;SDS011;17111;52.130;5.028;2022-10-16T13:53:33;22.67;;;11.90;;
30301;SDS011;17111;52.130;5.028;2022-10-16T13:56:04;21.50;;;12.00;;
30301;SDS011;17111;52.130;5.028;2022-10-16T13:58:33;20.83;;;10.90;;
30301;SDS011;17111;52.130;5.028;2022-10-16T14:01:00;19.90;;;11.45;;
30301;SDS011;17111;52.130;5.028;2022-10-16T14:03:30;19.73;;;11.48;;
30301;SDS011;17111;52.130;5.028;2022-10-16T14:06:00;16.52;;;9.95;;
30301;SDS011;17111;52.130;5.028;2022-10-16T14:08:29;18.95;;;11.10;;
30301;SDS011;17111;52.130;5.028;2022-10-16T14:10:57;20.83;;;11.30;;
30301;SDS011;17111;52.130;5.028;2022-10-16T14:15:57;19.67;;;10.73;;
30301;SDS011;17111;52.130;5.028;2022-10-16T14:18:28;19.10;;;10.23;;
30301;SDS011;17111;52.130;5.028;2022-10-16T14:21:06;18.92;;;11.30;;
30301;SDS011;17111;52.130;5.028;2022-10-16T14:23:39;17.80;;;10.30;;
30301;SDS011;17111;52.130;5.028;2022-10-16T14:28:40;17.13;;;10.30;;
30301;SDS011;17111;52.130;5.028;2022-10-16T14:31:25;16.13;;;9.80;;
30301;SDS011;17111;52.130;5.028;2022-10-16T14:33:53;17.30;;;9.93;;
30301;SDS011;17111;52.130;5.028;2022-10-16T14:36:20;19.95;;;11.00;;
30301;SDS011;17111;52.130;5.028;2022-10-16T14:38:49;19.95;;;10.48;;
30301;SDS011;17111;52.130;5.028;2022-10-16T14:41:30;18.73;;;11.13;;
30301;SDS011;17111;52.130;5.028;2022-10-16T14:44:02;19.25;;;10.43;;
30301;SDS011;17111;52.130;5.028;2022-10-16T14:46:34;17.08;;;10.13;;
30301;SDS011;17111;52.130;5.028;2022-10-16T14:49:04;16.80;;;9.60;;
30301;SDS011;17111;52.130;5.028;2022-10-16T14:51:41;15.60;;;10.35;;
30301;SDS011;17111;52.130;5.028;2022-10-16T14:54:08;17.58;;;9.13;;
30301;SDS011;17111;52.130;5.028;2022-10-16T14:56:42;16.27;;;9.70;;
30301;SDS011;17111;52.130;5.028;2022-10-16T14:59:19;17.27;;;10.02;;
30301;SDS011;17111;52.130;5.028;2022-10-16T15:01:50;20.30;;;10.40;;
30301;SDS011;17111;52.130;5.028;2022-10-16T15:04:17;15.55;;;9.65;;
30301;SDS011;17111;52.130;5.028;2022-10-16T15:06:44;14.85;;;8.48;;
30301;SDS011;17111;52.130;5.028;2022-10-16T15:09:35;15.27;;;9.27;;
30301;SDS011;17111;52.130;5.028;2022-10-16T15:12:26;18.33;;;9.52;;
30301;SDS011;17111;52.130;5.028;2022-10-16T15:15:25;18.27;;;10.00;;
30301;SDS011;17111;52.130;5.028;2022-10-16T15:18:22;16.77;;;9.20;;
30301;SDS011;17111;52.130;5.028;2022-10-16T15:24:21;14.52;;;8.27;;
30301;SDS011;17111;52.130;5.028;2022-10-16T15:27:12;18.85;;;9.90;;
30301;SDS011;17111;52.130;5.028;2022-10-16T15:30:03;14.95;;;8.80;;
30301;SDS011;17111;52.130;5.028;2022-10-16T15:32:54;19.58;;;10.80;;
30301;SDS011;17111;52.130;5.028;2022-10-16T15:35:21;19.25;;;11.75;;
30301;SDS011;17111;52.130;5.028;2022-10-16T15:37:47;24.92;;;14.18;;
30301;SDS011;17111;52.130;5.028;2022-10-16T15:40:15;21.33;;;12.95;;
30301;SDS011;17111;52.130;5.028;2022-10-16T15:42:43;25.20;;;13.85;;
30301;SDS011;17111;52.130;5.028;2022-10-16T15:45:10;21.98;;;12.05;;
30301;SDS011;17111;52.130;5.028;2022-10-16T15:47:37;20.58;;;11.13;;
30301;SDS011;17111;52.130;5.028;2022-10-16T15:50:11;22.13;;;11.68;;
30301;SDS011;17111;52.130;5.028;2022-10-16T15:52:39;16.10;;;10.23;;
30301;SDS011;17111;52.130;5.028;2022-10-16T15:55:09;21.38;;;10.68;;
30301;SDS011;17111;52.130;5.028;2022-10-16T15:57:37;18.50;;;10.50;;
30301;SDS011;17111;52.130;5.028;2022-10-16T16:00:05;21.75;;;12.32;;
30301;SDS011;17111;52.130;5.028;2022-10-16T16:02:37;21.73;;;12.23;;
30301;SDS011;17111;52.130;5.028;2022-10-16T16:05:04;22.50;;;12.30;;
30301;SDS011;17111;52.130;5.028;2022-10-16T16:07:33;21.88;;;12.55;;
30301;SDS011;17111;52.130;5.028;2022-10-16T16:10:00;21.10;;;13.02;;
30301;SDS011;17111;52.130;5.028;2022-10-16T16:12:27;21.77;;;12.40;;
30301;SDS011;17111;52.130;5.028;2022-10-16T16:14:54;21.08;;;12.38;;
30301;SDS011;17111;52.130;5.028;2022-10-16T16:17:21;22.23;;;12.30;;
30301;SDS011;17111;52.130;5.028;2022-10-16T16:19:48;21.30;;;11.68;;
30301;SDS011;17111;52.130;5.028;2022-10-16T16:22:14;20.27;;;11.88;;
30301;SDS011;17111;52.130;5.028;2022-10-16T16:24:41;23.05;;;12.60;;
30301;SDS011;17111;52.130;5.028;2022-10-16T16:27:09;18.58;;;11.07;;
30301;SDS011;17111;52.130;5.028;2022-10-16T16:29:36;20.33;;;11.23;;
30301;SDS011;17111;52.130;5.028;2022-10-16T16:32:03;20.42;;;11.40;;
30301;SDS011;17111;52.130;5.028;2022-10-16T16:34:29;21.55;;;11.77;;
30301;SDS011;17111;52.130;5.028;2022-10-16T16:36:56;18.52;;;11.05;;
30301;SDS011;17111;52.130;5.028;2022-10-16T16:39:23;17.70;;;10.73;;
30301;SDS011;17111;52.130;5.028;2022-10-16T16:41:50;16.85;;;10.35;;
30301;SDS011;17111;52.130;5.028;2022-10-16T16:44:16;18.42;;;10.98;;
30301;SDS011;17111;52.130;5.028;2022-10-16T16:46:43;19.88;;;11.30;;
30301;SDS011;17111;52.130;5.028;2022-10-16T16:49:11;17.60;;;10.85;;
30301;SDS011;17111;52.130;5.028;2022-10-16T16:51:39;19.02;;;10.80;;
30301;SDS011;17111;52.130;5.028;2022-10-16T16:54:06;16.25;;;9.38;;
30301;SDS011;17111;52.130;5.028;2022-10-16T16:56:33;21.42;;;11.10;;
30301;SDS011;17111;52.130;5.028;2022-10-16T16:59:01;23.45;;;14.10;;
30301;SDS011;17111;52.130;5.028;2022-10-16T17:01:28;26.88;;;14.40;;
30301;SDS011;17111;52.130;5.028;2022-10-16T17:03:55;21.38;;;12.02;;
30301;SDS011;17111;52.130;5.028;2022-10-16T17:06:24;17.58;;;10.80;;
30301;SDS011;17111;52.130;5.028;2022-10-16T17:08:52;20.70;;;11.02;;
30301;SDS011;17111;52.130;5.028;2022-10-16T17:11:20;17.65;;;9.93;;
30301;SDS011;17111;52.130;5.028;2022-10-16T17:13:49;18.90;;;10.77;;
30301;SDS011;17111;52.130;5.028;2022-10-16T17:16:26;19.08;;;10.48;;
30301;SDS011;17111;52.130;5.028;2022-10-16T17:18:55;16.50;;;10.70;;
30301;SDS011;17111;52.130;5.028;2022-10-16T17:21:24;17.05;;;10.10;;
30301;SDS011;17111;52.130;5.028;2022-10-16T17:23:53;18.10;;;10.18;;
30301;SDS011;17111;52.130;5.028;2022-10-16T17:26:19;20.13;;;9.73;;
30301;SDS011;17111;52.130;5.028;2022-10-16T17:28:49;19.67;;;10.55;;
30301;SDS011;17111;52.130;5.028;2022-10-16T17:31:19;16.15;;;9.88;;
30301;SDS011;17111;52.130;5.028;2022-10-16T17:33:47;20.08;;;9.93;;
30301;SDS011;17111;52.130;5.028;2022-10-16T17:36:14;16.52;;;10.07;;
30301;SDS011;17111;52.130;5.028;2022-10-16T17:38:41;17.83;;;9.55;;
30301;SDS011;17111;52.130;5.028;2022-10-16T17:41:12;16.65;;;9.65;;
30301;SDS011;17111;52.130;5.028;2022-10-16T17:43:46;19.17;;;10.00;;
30301;SDS011;17111;52.130;5.028;2022-10-16T17:46:14;15.63;;;9.27;;
30301;SDS011;17111;52.130;5.028;2022-10-16T17:48:43;15.50;;;9.38;;
30301;SDS011;17111;52.130;5.028;2022-10-16T17:51:12;15.90;;;8.75;;
30301;SDS011;17111;52.130;5.028;2022-10-16T17:53:40;15.65;;;8.55;;
30301;SDS011;17111;52.130;5.028;2022-10-16T17:56:09;14.05;;;8.57;;
30301;SDS011;17111;52.130;5.028;2022-10-16T17:58:37;15.15;;;8.52;;
30301;SDS011;17111;52.130;5.028;2022-10-16T18:01:12;16.50;;;8.70;;
30301;SDS011;17111;52.130;5.028;2022-10-16T18:03:39;16.13;;;8.90;;
30301;SDS011;17111;52.130;5.028;2022-10-16T18:06:06;19.08;;;11.65;;
30301;SDS011;17111;52.130;5.028;2022-10-16T18:08:33;23.33;;;12.23;;
30301;SDS011;17111;52.130;5.028;2022-10-16T18:11:03;27.15;;;15.93;;
30301;SDS011;17111;52.130;5.028;2022-10-16T18:13:30;24.80;;;15.30;;
30301;SDS011;17111;52.130;5.028;2022-10-16T18:16:00;27.27;;;15.93;;
30301;SDS011;17111;52.130;5.028;2022-10-16T18:18:28;28.98;;;17.20;;
30301;SDS011;17111;52.130;5.028;2022-10-16T18:20:56;36.63;;;19.33;;
30301;SDS011;17111;52.130;5.028;2022-10-16T18:23:26;37.15;;;21.35;;
30301;SDS011;17111;52.130;5.028;2022-10-16T18:25:53;41.72;;;23.10;;
30301;SDS011;17111;52.130;5.028;2022-10-16T18:28:22;40.20;;;23.15;;
30301;SDS011;17111;52.130;5.028;2022-10-16T18:30:55;41.60;;;23.13;;
30301;SDS011;17111;52.130;5.028;2022-10-16T18:33:23;38.10;;;22.67;;
30301;SDS011;17111;52.130;5.028;2022-10-16T18:35:51;39.08;;;22.88;;
30301;SDS011;17111;52.130;5.028;2022-10-16T18:38:18;35.90;;;21.67;;
30301;SDS011;17111;52.130;5.028;2022-10-16T18:40:45;40.17;;;21.80;;
30301;SDS011;17111;52.130;5.028;2022-10-16T18:43:12;34.97;;;21.40;;
30301;SDS011;17111;52.130;5.028;2022-10-16T18:45:38;35.60;;;21.10;;
30301;SDS011;17111;52.130;5.028;2022-10-16T18:48:05;35.00;;;20.90;;
30301;SDS011;17111;52.130;5.028;2022-10-16T18:50:32;37.78;;;22.27;;
30301;SDS011;17111;52.130;5.028;2022-10-16T18:52:58;33.83;;;20.70;;
30301;SDS011;17111;52.130;5.028;2022-10-16T18:55:25;34.92;;;21.27;;
30301;SDS011;17111;52.130;5.028;2022-10-16T18:57:56;32.72;;;19.95;;
30301;SDS011;17111;52.130;5.028;2022-10-16T19:00:22;34.67;;;20.67;;
30301;SDS011;17111;52.130;5.028;2022-10-16T19:02:49;41.67;;;21.02;;
30301;SDS011;17111;52.130;5.028;2022-10-16T19:05:15;32.33;;;19.50;;
30301;SDS011;17111;52.130;5.028;2022-10-16T19:07:44;36.08;;;21.08;;
30301;SDS011;17111;52.130;5.028;2022-10-16T19:10:11;31.77;;;19.15;;
30301;SDS011;17111;52.130;5.028;2022-10-16T19:12:37;30.73;;;19.08;;
30301;SDS011;17111;52.130;5.028;2022-10-16T19:15:06;28.42;;;18.10;;
30301;SDS011;17111;52.130;5.028;2022-10-16T19:17:33;31.42;;;18.42;;
30301;SDS011;17111;52.130;5.028;2022-10-16T19:20:02;29.17;;;17.90;;
30301;SDS011;17111;52.130;5.028;2022-10-16T19:22:29;30.75;;;17.85;;
30301;SDS011;17111;52.130;5.028;2022-10-16T19:25:16;28.52;;;17.15;;
30301;SDS011;17111;52.130;5.028;2022-10-16T19:27:44;28.58;;;16.83;;
30301;SDS011;17111;52.130;5.028;2022-10-16T19:30:10;29.45;;;16.65;;
30301;SDS011;17111;52.130;5.028;2022-10-16T19:32:38;28.65;;;17.15;;
30301;SDS011;17111;52.130;5.028;2022-10-16T19:35:04;27.88;;;17.23;;
30301;SDS011;17111;52.130;5.028;2022-10-16T19:37:32;27.55;;;16.15;;
30301;SDS011;17111;52.130;5.028;2022-10-16T19:39:59;26.98;;;16.45;;
30301;SDS011;17111;52.130;5.028;2022-10-16T19:42:25;27.13;;;16.05;;
30301;SDS011;17111;52.130;5.028;2022-10-16T19:44:52;30.48;;;16.83;;
30301;SDS011;17111;52.130;5.028;2022-10-16T19:47:19;26.85;;;14.98;;
30301;SDS011;17111;52.130;5.028;2022-10-16T19:49:48;26.00;;;15.68;;
30301;SDS011;17111;52.130;5.028;2022-10-16T19:52:15;24.88;;;15.30;;
30301;SDS011;17111;52.130;5.028;2022-10-16T19:54:47;24.70;;;15.27;;
30301;SDS011;17111;52.130;5.028;2022-10-16T19:57:13;26.10;;;16.38;;
30301;SDS011;17111;52.130;5.028;2022-10-16T19:59:40;23.15;;;14.40;;
30301;SDS011;17111;52.130;5.028;2022-10-16T20:02:10;26.05;;;14.30;;
30301;SDS011;17111;52.130;5.028;2022-10-16T20:04:37;26.50;;;14.23;;
30301;SDS011;17111;52.130;5.028;2022-10-16T20:07:04;23.38;;;14.45;;
30301;SDS011;17111;52.130;5.028;2022-10-16T20:09:31;23.23;;;14.18;;
30301;SDS011;17111;52.130;5.028;2022-10-16T20:11:59;23.92;;;14.05;;
30301;SDS011;17111;52.130;5.028;2022-10-16T20:14:27;24.15;;;14.27;;
30301;SDS011;17111;52.130;5.028;2022-10-16T20:16:54;25.35;;;14.85;;
30301;SDS011;17111;52.130;5.028;2022-10-16T20:19:20;23.63;;;14.55;;
30301;SDS011;17111;52.130;5.028;2022-10-16T20:21:47;24.75;;;15.13;;
30301;SDS011;17111;52.130;5.028;2022-10-16T20:24:14;24.27;;;13.95;;
30301;SDS011;17111;52.130;5.028;2022-10-16T20:26:41;22.65;;;14.25;;
30301;SDS011;17111;52.130;5.028;2022-10-16T20:29:07;26.23;;;15.35;;
30301;SDS011;17111;52.130;5.028;2022-10-16T20:31:34;22.20;;;13.80;;
30301;SDS011;17111;52.130;5.028;2022-10-16T20:34:06;21.30;;;13.15;;
30301;SDS011;17111;52.130;5.028;2022-10-16T20:36:34;23.40;;;14.25;;
30301;SDS011;17111;52.130;5.028;2022-10-16T20:39:02;20.95;;;13.50;;
30301;SDS011;17111;52.130;5.028;2022-10-16T20:41:30;22.52;;;14.05;;
30301;SDS011;17111;52.130;5.028;2022-10-16T20:43:56;22.70;;;13.20;;
30301;SDS011;17111;52.130;5.028;2022-10-16T20:46:24;26.70;;;15.23;;
30301;SDS011;17111;52.130;5.028;2022-10-16T20:48:52;21.35;;;13.27;;
30301;SDS011;17111;52.130;5.028;2022-10-16T20:53:55;18.15;;;11.48;;
30301;SDS011;17111;52.130;5.028;2022-10-16T20:56:23;22.45;;;13.10;;
30301;SDS011;17111;52.130;5.028;2022-10-16T20:58:51;18.55;;;11.85;;
30301;SDS011;17111;52.130;5.028;2022-10-16T21:01:19;19.23;;;11.75;;
30301;SDS011;17111;52.130;5.028;2022-10-16T21:03:48;17.30;;;10.98;;
30301;SDS011;17111;52.130;5.028;2022-10-16T21:06:17;20.38;;;12.20;;
30301;SDS011;17111;52.130;5.028;2022-10-16T21:08:43;20.20;;;12.02;;
30301;SDS011;17111;52.130;5.028;2022-10-16T21:13:41;19.05;;;11.10;;
30301;SDS011;17111;52.130;5.028;2022-10-16T21:16:08;18.02;;;11.20;;
30301;SDS011;17111;52.130;5.028;2022-10-16T21:18:36;18.02;;;10.68;;
30301;SDS011;17111;52.130;5.028;2022-10-16T21:21:09;19.92;;;11.40;;
30301;SDS011;17111;52.130;5.028;2022-10-16T21:23:37;20.92;;;11.52;;
30301;SDS011;17111;52.130;5.028;2022-10-16T21:26:03;18.42;;;11.25;;
30301;SDS011;17111;52.130;5.028;2022-10-16T21:28:30;17.98;;;11.35;;
30301;SDS011;17111;52.130;5.028;2022-10-16T21:30:57;17.40;;;10.50;;
30301;SDS011;17111;52.130;5.028;2022-10-16T21:33:24;16.77;;;10.73;;
30301;SDS011;17111;52.130;5.028;2022-10-16T21:35:50;16.55;;;9.82;;
30301;SDS011;17111;52.130;5.028;2022-10-16T21:38:17;17.05;;;10.25;;
30301;SDS011;17111;52.130;5.028;2022-10-16T21:40:44;15.52;;;9.70;;
30301;SDS011;17111;52.130;5.028;2022-10-16T21:43:10;15.75;;;10.00;;
30301;SDS011;17111;52.130;5.028;2022-10-16T21:45:37;20.17;;;10.48;;
30301;SDS011;17111;52.130;5.028;2022-10-16T21:48:03;18.50;;;9.82;;
30301;SDS011;17111;52.130;5.028;2022-10-16T21:50:30;14.73;;;9.20;;
30301;SDS011;17111;52.130;5.028;2022-10-16T21:52:56;17.17;;;9.50;;
30301;SDS011;17111;52.130;5.028;2022-10-16T21:55:23;14.88;;;9.15;;
30301;SDS011;17111;52.130;5.028;2022-10-16T21:57:49;13.32;;;8.02;;
30301;SDS011;17111;52.130;5.028;2022-10-16T22:00:16;12.43;;;8.02;;
30301;SDS011;17111;52.130;5.028;2022-10-16T22:02:42;17.85;;;9.45;;
30301;SDS011;17111;52.130;5.028;2022-10-16T22:05:09;12.70;;;8.05;;
30301;SDS011;17111;52.130;5.028;2022-10-16T22:07:36;14.30;;;8.73;;
30301;SDS011;17111;52.130;5.028;2022-10-16T22:10:02;15.13;;;8.85;;
30301;SDS011;17111;52.130;5.028;2022-10-16T22:12:29;14.95;;;9.13;;
30301;SDS011;17111;52.130;5.028;2022-10-16T22:14:56;12.95;;;8.38;;
30301;SDS011;17111;52.130;5.028;2022-10-16T22:17:22;13.98;;;8.23;;
30301;SDS011;17111;52.130;5.028;2022-10-16T22:19:49;12.77;;;8.20;;
30301;SDS011;17111;52.130;5.028;2022-10-16T22:22:15;11.60;;;7.50;;
30301;SDS011;17111;52.130;5.028;2022-10-16T22:24:42;12.05;;;7.80;;
30301;SDS011;17111;52.130;5.028;2022-10-16T22:27:08;12.85;;;8.23;;
30301;SDS011;17111;52.130;5.028;2022-10-16T22:29:35;14.10;;;8.35;;
30301;SDS011;17111;52.130;5.028;2022-10-16T22:32:01;11.32;;;7.47;;
30301;SDS011;17111;52.130;5.028;2022-10-16T22:34:28;11.65;;;7.25;;
30301;SDS011;17111;52.130;5.028;2022-10-16T22:36:54;12.80;;;8.07;;
30301;SDS011;17111;52.130;5.028;2022-10-16T22:39:21;12.95;;;7.45;;
30301;SDS011;17111;52.130;5.028;2022-10-16T22:41:47;13.50;;;8.07;;
30301;SDS011;17111;52.130;5.028;2022-10-16T22:44:14;12.40;;;7.72;;
30301;SDS011;17111;52.130;5.028;2022-10-16T22:46:40;11.02;;;7.05;;
30301;SDS011;17111;52.130;5.028;2022-10-16T22:49:07;11.65;;;7.13;;
30301;SDS011;17111;52.130;5.028;2022-10-16T22:51:33;13.75;;;7.38;;
30301;SDS011;17111;52.130;5.028;2022-10-16T22:54:00;11.70;;;6.90;;
30301;SDS011;17111;52.130;5.028;2022-10-16T22:56:26;12.35;;;7.07;;
30301;SDS011;17111;52.130;5.028;2022-10-16T22:58:53;12.23;;;7.35;;
30301;SDS011;17111;52.130;5.028;2022-10-16T23:01:22;10.45;;;7.03;;
30301;SDS011;17111;52.130;5.028;2022-10-16T23:03:51;11.60;;;6.72;;
30301;SDS011;17111;52.130;5.028;2022-10-16T23:06:18;9.20;;;6.30;;
30301;SDS011;17111;52.130;5.028;2022-10-16T23:08:48;10.35;;;6.70;;
30301;SDS011;17111;52.130;5.028;2022-10-16T23:11:16;11.93;;;6.70;;
30301;SDS011;17111;52.130;5.028;2022-10-16T23:13:42;12.85;;;6.95;;
30301;SDS011;17111;52.130;5.028;2022-10-16T23:16:11;11.20;;;6.28;;
30301;SDS011;17111;52.130;5.028;2022-10-16T23:18:40;10.27;;;6.20;;
30301;SDS011;17111;52.130;5.028;2022-10-16T23:21:08;11.43;;;6.70;;
30301;SDS011;17111;52.130;5.028;2022-10-16T23:23:40;9.02;;;5.78;;
30301;SDS011;17111;52.130;5.028;2022-10-16T23:26:10;9.18;;;6.38;;
30301;SDS011;17111;52.130;5.028;2022-10-16T23:28:39;9.02;;;5.95;;
30301;SDS011;17111;52.130;5.028;2022-10-16T23:31:06;9.50;;;6.00;;
30301;SDS011;17111;52.130;5.028;2022-10-16T23:33:33;8.52;;;5.53;;
30301;SDS011;17111;52.130;5.028;2022-10-16T23:36:04;10.68;;;5.38;;
30301;SDS011;17111;52.130;5.028;2022-10-16T23:38:32;9.18;;;5.90;;
30301;SDS011;17111;52.130;5.028;2022-10-16T23:40:58;10.27;;;6.07;;
30301;SDS011;17111;52.130;5.028;2022-10-16T23:43:25;7.57;;;4.95;;
30301;SDS011;17111;52.130;5.028;2022-10-16T23:45:52;10.60;;;5.97;;
30301;SDS011;17111;52.130;5.028;2022-10-16T23:48:19;8.68;;;5.53;;
30301;SDS011;17111;52.130;5.028;2022-10-16T23:50:45;10.18;;;5.53;;
30301;SDS011;17111;52.130;5.028;2022-10-16T23:53:12;9.05;;;5.53;;
30301;SDS011;17111;52.130;5.028;2022-10-16T23:55:39;9.70;;;5.88;;
30301;SDS011;17111;52.130;5.028;2022-10-16T23:58:05;7.63;;;5.25;;
